Decoded Metar for UHBB (BLAGOVESCHENSK in RUSSIA) (IATA:BQS) | Meteo·Mobile Aviation Weather
aviador You're here:

UHBB Decoded Metar

BLAGOVESCHENSK in RUSSIA
Report Time2018-10-19 08:30:00
UTC Time2018-10-19 09:10:20
Flight Rules vfr VFR
Wind120° at 4 kt
W.Decomp.*RWY 18: 2.6 kt HW 3 kt LCW
W.Rank120° ranks 29
Current wind is below 120° avg. (6.1)
Visibility9999 m
Phenomena:N/A
Clouds:Few 033 Hf
Expected CloudBase > 5,200 ft AGL from Temp-Dew spread
CeilingNone
Temp09°C (ISA -5)
Dew Point-4°C (40% RH)
AAT5.1°C
QNH1019 hPa
Density Alt-62 ft
Elevation640 ft
Report Wrong Elevation
Raw Report
METAR UHBB 190830Z 12002MPS 9999 FEW033 09/M04 Q1019 R36/090060 NOSIG
RMK QFE746/0995=

Extra information for UHBB:More info

Metar Taf Metar & Taf Last 4 Metars F.Rules Stats Wind Profile Meteogram Temp Stats Airport Information Weather charts Add Link Nearby VenuesMetar ALERT Operation Metar Decoded Social comments